createdAt,value
2022-12-04T00:02:20.034Z,31.20
2022-12-04T00:04:46.544Z,26.69
2022-12-04T00:07:13.090Z,24.99
2022-12-04T00:09:39.503Z,24.42
2022-12-04T00:12:05.887Z,25.36
2022-12-04T00:14:32.262Z,25.44
2022-12-04T00:16:58.845Z,25.95
2022-12-04T00:19:25.200Z,25.04
2022-12-04T00:21:51.564Z,26.60
2022-12-04T00:24:18.086Z,27.71
2022-12-04T00:26:46.359Z,25.34
2022-12-04T00:29:12.773Z,25.31
2022-12-04T00:31:39.195Z,25.82
2022-12-04T00:34:07.992Z,25.46
2022-12-04T00:36:34.775Z,25.32
2022-12-04T00:39:01.214Z,25.49
2022-12-04T00:41:29.575Z,26.56
2022-12-04T00:43:55.957Z,26.26
2022-12-04T00:46:22.373Z,25.33
2022-12-04T00:48:48.738Z,26.37
2022-12-04T00:51:15.179Z,25.83
2022-12-04T00:53:41.650Z,26.12
2022-12-04T00:56:09.965Z,26.08
2022-12-04T00:58:36.421Z,26.41
2022-12-04T01:01:03.238Z,25.81
2022-12-04T01:03:29.731Z,24.51
2022-12-04T01:05:56.210Z,25.16
2022-12-04T01:08:23.380Z,24.67
2022-12-04T01:11:02.508Z,25.46
2022-12-04T01:13:34.148Z,25.90
2022-12-04T01:16:00.594Z,25.18
2022-12-04T01:18:27.183Z,24.74
2022-12-04T01:20:53.688Z,24.19
2022-12-04T01:23:20.239Z,24.97
2022-12-04T01:25:46.605Z,24.76
2022-12-04T01:28:20.264Z,24.93
2022-12-04T01:30:46.620Z,24.70
2022-12-04T01:33:13.030Z,24.88
2022-12-04T01:35:39.412Z,24.03
2022-12-04T01:38:05.909Z,23.54
2022-12-04T01:40:34.963Z,23.17
2022-12-04T01:43:06.976Z,23.31
2022-12-04T01:45:33.736Z,23.39
2022-12-04T01:48:08.325Z,23.98
2022-12-04T01:50:34.716Z,23.27
2022-12-04T01:53:01.103Z,23.08
2022-12-04T01:55:27.516Z,23.35
2022-12-04T01:57:53.867Z,23.53
2022-12-04T02:00:20.390Z,24.26
2022-12-04T02:02:49.590Z,24.56
2022-12-04T02:05:16.186Z,25.03
2022-12-04T02:07:43.010Z,25.79
2022-12-04T02:10:14.221Z,25.38
2022-12-04T02:12:41.087Z,23.98
2022-12-04T02:15:07.896Z,24.18
2022-12-04T02:17:34.410Z,25.01
2022-12-04T02:20:00.853Z,24.85
2022-12-04T02:22:27.691Z,24.73
2022-12-04T02:24:54.128Z,24.80
2022-12-04T02:27:20.635Z,25.01
2022-12-04T02:29:47.171Z,25.33
2022-12-04T02:32:13.566Z,24.61
2022-12-04T02:34:40.065Z,24.40
2022-12-04T02:37:06.412Z,25.27
2022-12-04T02:39:32.822Z,24.48
2022-12-04T02:41:59.210Z,24.43
2022-12-04T02:44:25.585Z,24.80
2022-12-04T02:46:51.973Z,25.04
2022-12-04T02:49:18.382Z,24.89
2022-12-04T02:51:44.880Z,24.95
2022-12-04T02:54:13.329Z,24.34
2022-12-04T02:56:39.748Z,24.49
2022-12-04T02:59:06.478Z,24.77
2022-12-04T03:01:33.051Z,25.06
2022-12-04T03:03:59.591Z,24.75
2022-12-04T03:06:26.655Z,24.92
2022-12-04T03:08:52.969Z,24.69
2022-12-04T03:11:19.358Z,24.39
2022-12-04T03:13:45.704Z,24.76
2022-12-04T03:16:15.135Z,24.54
2022-12-04T03:18:41.611Z,25.21
2022-12-04T03:21:08.028Z,24.95
2022-12-04T03:23:34.434Z,24.93
2022-12-04T03:26:00.801Z,25.24
2022-12-04T03:28:27.155Z,24.90
2022-12-04T03:30:53.968Z,25.08
2022-12-04T03:33:20.542Z,25.49
2022-12-04T03:35:46.907Z,25.39
2022-12-04T03:38:13.459Z,25.47
2022-12-04T03:40:39.809Z,25.06
2022-12-04T03:43:06.174Z,25.05
2022-12-04T03:45:32.540Z,25.03
2022-12-04T03:47:58.908Z,24.42
2022-12-04T03:50:25.258Z,24.82
2022-12-04T03:52:51.596Z,24.59
2022-12-04T03:55:17.978Z,25.51
2022-12-04T03:57:44.351Z,25.08
2022-12-04T04:00:10.667Z,25.28
2022-12-04T04:02:37.037Z,25.03
2022-12-04T04:05:03.504Z,24.00
2022-12-04T04:07:35.121Z,24.25
2022-12-04T04:10:01.835Z,25.51
2022-12-04T04:12:28.256Z,25.48
2022-12-04T04:14:54.607Z,26.23
2022-12-04T04:17:20.933Z,26.45
2022-12-04T04:19:47.251Z,26.11
2022-12-04T04:22:13.627Z,26.27
2022-12-04T04:24:40.157Z,26.05
2022-12-04T04:27:06.496Z,27.91
2022-12-04T04:29:32.900Z,25.46
2022-12-04T04:31:59.266Z,26.19
2022-12-04T04:34:25.656Z,25.17
2022-12-04T04:36:51.982Z,24.91
2022-12-04T04:39:18.346Z,25.15
2022-12-04T04:41:44.761Z,25.49
2022-12-04T04:44:11.187Z,24.65
2022-12-04T04:46:38.055Z,24.83
2022-12-04T04:49:04.662Z,25.12
2022-12-04T04:51:31.047Z,25.25
2022-12-04T04:53:57.514Z,25.73
2022-12-04T04:56:23.878Z,25.44
2022-12-04T04:58:50.245Z,26.28
2022-12-04T05:01:16.751Z,25.93
2022-12-04T05:03:43.162Z,26.53
2022-12-04T05:06:09.583Z,27.17
2022-12-04T05:08:35.935Z,27.02
2022-12-04T05:11:02.314Z,27.10
2022-12-04T05:13:28.702Z,27.52
2022-12-04T05:15:55.148Z,26.93
2022-12-04T05:18:21.579Z,26.13
2022-12-04T05:20:47.969Z,25.10
2022-12-04T05:23:17.395Z,25.51
2022-12-04T05:25:43.757Z,26.79
2022-12-04T05:28:10.154Z,27.19
2022-12-04T05:30:36.578Z,26.73
2022-12-04T05:33:02.969Z,26.86
2022-12-04T05:35:29.274Z,26.69
2022-12-04T05:37:55.604Z,26.22
2022-12-04T05:40:22.024Z,25.64
2022-12-04T05:42:48.382Z,25.27
2022-12-04T05:45:14.755Z,27.66
2022-12-04T05:47:41.138Z,26.49
2022-12-04T05:50:07.467Z,26.03
2022-12-04T05:52:34.005Z,25.40
2022-12-04T05:55:00.395Z,24.52
2022-12-04T05:57:29.743Z,25.41
2022-12-04T05:59:56.818Z,24.80
2022-12-04T06:02:23.409Z,25.88
2022-12-04T06:04:49.965Z,26.15
2022-12-04T06:07:16.383Z,25.71
2022-12-04T06:09:42.760Z,25.10
2022-12-04T06:12:09.185Z,25.13
2022-12-04T06:14:39.478Z,25.42
2022-12-04T06:17:06.384Z,25.06
2022-12-04T06:19:32.843Z,25.60
2022-12-04T06:21:59.181Z,25.24
2022-12-04T06:24:25.586Z,25.29
2022-12-04T06:27:25.782Z,25.47
2022-12-04T06:29:38.309Z,25.38
2022-12-04T06:32:04.778Z,25.07
2022-12-04T06:34:31.409Z,25.34
2022-12-04T06:36:57.848Z,25.95
2022-12-04T06:39:24.234Z,25.54
2022-12-04T06:41:50.580Z,25.78
2022-12-04T06:44:17.016Z,26.11
2022-12-04T06:46:47.243Z,26.29
2022-12-04T06:49:14.391Z,25.24
2022-12-04T06:51:40.812Z,26.55
2022-12-04T06:54:07.298Z,25.71
2022-12-04T06:56:33.691Z,26.32
2022-12-04T06:59:00.045Z,25.70
2022-12-04T07:01:26.569Z,26.52
2022-12-04T07:03:53.079Z,26.24
2022-12-04T07:06:19.530Z,26.12
2022-12-04T07:08:45.918Z,26.29
2022-12-04T07:11:12.447Z,26.27
2022-12-04T07:13:38.887Z,26.06
2022-12-04T07:16:05.294Z,25.73
2022-12-04T07:18:31.902Z,25.66
2022-12-04T07:20:58.268Z,25.83
2022-12-04T07:23:26.305Z,26.11
2022-12-04T07:25:52.657Z,26.10
2022-12-04T07:28:19.030Z,26.26
2022-12-04T07:30:45.365Z,26.35
2022-12-04T07:33:17.851Z,25.25
2022-12-04T07:35:44.210Z,25.80
2022-12-04T07:38:10.777Z,26.28
2022-12-04T07:40:43.339Z,25.40
2022-12-04T07:43:09.757Z,25.81
2022-12-04T07:45:43.818Z,26.11
2022-12-04T07:48:17.742Z,24.95
2022-12-04T07:50:44.414Z,25.30
2022-12-04T07:53:10.793Z,25.79
2022-12-04T07:58:21.079Z,28.27
2022-12-04T08:00:49.262Z,26.81
2022-12-04T08:03:15.723Z,26.31
2022-12-04T08:05:42.306Z,24.22
2022-12-04T08:08:08.818Z,24.88
2022-12-04T08:10:35.303Z,24.74
2022-12-04T08:13:01.765Z,25.75
2022-12-04T08:15:28.299Z,25.90
2022-12-04T08:17:54.703Z,25.60
2022-12-04T08:20:21.056Z,26.47
2022-12-04T08:22:48.803Z,25.54
2022-12-04T08:25:17.708Z,25.44
2022-12-04T08:27:47.368Z,26.35
2022-12-04T08:30:14.270Z,25.97
2022-12-04T08:32:48.239Z,25.93
2022-12-04T08:38:27.013Z,26.47
2022-12-04T08:40:53.492Z,27.08
2022-12-04T08:43:19.917Z,26.81
2022-12-04T08:45:46.476Z,27.25
2022-12-04T08:48:13.030Z,27.62
2022-12-04T08:50:39.440Z,26.84
2022-12-04T08:53:05.926Z,26.78
2022-12-04T08:55:32.313Z,27.19
2022-12-04T08:57:58.790Z,26.72
2022-12-04T09:00:25.234Z,26.71
2022-12-04T09:02:51.773Z,27.12
2022-12-04T09:05:18.161Z,27.03
2022-12-04T09:07:44.726Z,27.44
2022-12-04T09:10:12.909Z,26.79
2022-12-04T09:12:42.159Z,26.84
2022-12-04T09:15:16.501Z,27.13
2022-12-04T09:17:45.195Z,27.13
2022-12-04T09:20:11.661Z,27.29
2022-12-04T09:23:02.140Z,27.19
2022-12-04T09:25:37.195Z,26.82
2022-12-04T09:28:55.263Z,27.42
2022-12-04T09:42:08.300Z,26.33
2022-12-04T09:50:07.055Z,26.49
2022-12-04T09:52:35.051Z,26.35
2022-12-04T09:55:09.571Z,27.27
2022-12-04T09:57:36.257Z,26.45
2022-12-04T10:00:10.253Z,27.22
2022-12-04T10:02:37.594Z,27.04
2022-12-04T10:05:10.310Z,27.32
2022-12-04T10:07:36.823Z,26.61
2022-12-04T10:10:03.508Z,26.98
2022-12-04T10:15:10.598Z,27.85
2022-12-04T10:17:37.347Z,28.23
2022-12-04T10:20:03.962Z,27.72
2022-12-04T10:22:33.642Z,27.15
2022-12-04T10:25:00.261Z,27.41
2022-12-04T10:27:27.917Z,27.05
2022-12-04T10:29:57.240Z,26.13
2022-12-04T10:32:24.213Z,27.30
2022-12-04T10:34:50.562Z,26.74
2022-12-04T10:37:17.021Z,27.19
2022-12-04T10:39:43.447Z,32.60
2022-12-04T10:42:09.936Z,29.09
2022-12-04T10:44:36.349Z,27.20
2022-12-04T10:47:02.872Z,26.91
2022-12-04T10:52:30.568Z,26.13
2022-12-04T10:54:59.121Z,26.53
2022-12-04T10:57:25.991Z,26.35
2022-12-04T10:59:52.488Z,27.41
2022-12-04T11:02:20.223Z,26.94
2022-12-04T11:04:49.589Z,26.95
2022-12-04T11:09:56.513Z,25.99
2022-12-04T11:12:23.185Z,25.46
2022-12-04T11:14:49.757Z,26.31
2022-12-04T11:17:16.245Z,28.79
2022-12-04T11:19:42.698Z,28.22
2022-12-04T11:22:09.343Z,27.27
2022-12-04T11:27:16.206Z,27.10
2022-12-04T11:29:42.762Z,27.11
2022-12-04T11:32:09.380Z,27.14
2022-12-04T11:34:35.833Z,27.13
2022-12-04T11:37:02.357Z,27.12
2022-12-04T11:39:31.819Z,27.73
2022-12-04T11:41:58.315Z,26.60
2022-12-04T11:44:29.039Z,27.44
2022-12-04T11:46:55.515Z,26.96
2022-12-04T11:49:23.122Z,26.78
2022-12-04T11:51:55.519Z,26.59
2022-12-04T11:54:22.023Z,26.57
2022-12-04T11:59:39.371Z,27.07
2022-12-04T12:02:06.050Z,26.88
2022-12-04T12:04:32.592Z,27.19
2022-12-04T12:06:59.089Z,27.40
2022-12-04T12:09:25.727Z,27.29
2022-12-04T12:14:32.537Z,26.73
2022-12-04T12:16:59.071Z,26.28
2022-12-04T12:19:25.520Z,27.25
2022-12-04T12:21:52.049Z,27.25
2022-12-04T12:24:18.506Z,26.73
2022-12-04T12:26:45.012Z,27.42
2022-12-04T12:29:14.420Z,26.70
2022-12-04T12:31:41.053Z,27.05
2022-12-04T12:34:07.639Z,26.89
2022-12-04T12:36:34.145Z,26.58
2022-12-04T12:39:00.573Z,26.19
2022-12-04T12:41:27.036Z,26.32
2022-12-04T12:43:53.528Z,26.21
2022-12-04T12:46:20.148Z,26.07
2022-12-04T12:48:46.642Z,27.03
2022-12-04T12:51:29.559Z,26.47
2022-12-04T12:53:57.182Z,27.81
2022-12-04T12:56:23.703Z,26.94
2022-12-04T12:58:50.095Z,25.77
2022-12-04T13:01:16.624Z,26.28
2022-12-04T13:03:45.482Z,25.86
2022-12-04T13:06:11.999Z,25.61
2022-12-04T13:11:18.796Z,25.92
2022-12-04T13:13:45.330Z,26.05
2022-12-04T13:16:11.914Z,26.18
2022-12-04T13:18:39.708Z,26.21
2022-12-04T13:21:06.186Z,26.92
2022-12-04T13:23:32.729Z,25.40
2022-12-04T13:25:59.143Z,25.98
2022-12-04T13:28:25.659Z,26.23
2022-12-04T13:30:52.138Z,27.21
2022-12-04T13:33:18.652Z,53.10
2022-12-04T13:35:47.622Z,41.02
2022-12-04T13:38:17.076Z,28.03
2022-12-04T13:40:43.525Z,26.87
2022-12-04T13:43:09.949Z,26.10
2022-12-04T13:45:46.028Z,25.91
2022-12-04T13:48:12.715Z,25.80
2022-12-04T13:50:39.275Z,26.34
2022-12-04T13:53:09.747Z,26.05
2022-12-04T13:55:36.260Z,26.29
2022-12-04T13:58:02.810Z,25.43
2022-12-04T14:00:29.297Z,25.82
2022-12-04T14:02:55.954Z,25.58
2022-12-04T14:05:22.617Z,26.42
2022-12-04T14:07:49.124Z,30.10
2022-12-04T14:10:15.659Z,28.25
2022-12-04T14:12:42.143Z,25.78
2022-12-04T14:17:55.880Z,24.65
2022-12-04T14:20:22.527Z,25.23
2022-12-04T14:22:49.966Z,25.18
2022-12-04T14:25:23.584Z,25.00
2022-12-04T14:27:50.166Z,25.08
2022-12-04T14:30:16.692Z,24.93
2022-12-04T14:32:43.186Z,24.65
2022-12-04T14:35:09.853Z,25.02
2022-12-04T14:37:36.381Z,25.75
2022-12-04T14:40:02.887Z,25.03
2022-12-04T14:42:38.487Z,24.99
2022-12-04T14:45:05.289Z,25.07
2022-12-04T14:50:22.870Z,26.31
2022-12-04T14:52:49.351Z,25.00
2022-12-04T15:00:39.452Z,27.07
2022-12-04T15:03:05.967Z,24.62
2022-12-04T15:05:36.829Z,24.28
2022-12-04T15:08:06.123Z,25.36
2022-12-04T15:10:32.744Z,25.43
2022-12-04T15:12:59.123Z,24.29
2022-12-04T15:15:25.718Z,24.45
2022-12-04T15:17:54.223Z,24.64
2022-12-04T15:20:20.668Z,25.22
2022-12-04T15:22:56.076Z,27.88
2022-12-04T15:25:22.781Z,29.26
2022-12-04T15:27:49.269Z,27.85
2022-12-04T15:30:18.229Z,26.43
2022-12-04T15:32:44.947Z,25.49
2022-12-04T15:35:11.971Z,25.52
2022-12-04T15:37:45.921Z,27.31
2022-12-04T15:40:13.468Z,25.35
2022-12-04T15:42:39.918Z,26.24
2022-12-04T15:45:06.399Z,26.74
2022-12-04T15:47:32.916Z,25.62
2022-12-04T15:50:00.449Z,24.89
2022-12-04T15:52:26.888Z,25.09
2022-12-04T15:54:53.535Z,24.74
2022-12-04T15:57:20.219Z,25.43
2022-12-04T15:59:46.696Z,27.98
2022-12-04T16:02:13.228Z,41.34
2022-12-04T16:04:45.249Z,28.65
2022-12-04T16:07:12.018Z,25.73
2022-12-04T16:09:38.474Z,25.61
2022-12-04T16:12:04.862Z,25.83
2022-12-04T16:14:31.189Z,25.77
2022-12-04T16:17:02.557Z,25.60
2022-12-04T16:19:32.227Z,25.86
2022-12-04T16:21:58.671Z,25.56
2022-12-04T16:24:25.706Z,24.41
2022-12-04T16:26:52.597Z,24.65
2022-12-04T16:29:21.885Z,23.72
2022-12-04T16:31:50.963Z,23.71
2022-12-04T16:34:17.566Z,22.89
2022-12-04T16:36:44.073Z,22.62
2022-12-04T16:39:11.821Z,23.25
2022-12-04T16:41:38.363Z,24.30
2022-12-04T16:44:04.885Z,26.67
2022-12-04T16:46:31.502Z,25.46
2022-12-04T16:49:02.803Z,25.15
2022-12-04T16:51:32.429Z,26.37
2022-12-04T16:53:58.938Z,25.69
2022-12-04T16:56:27.956Z,22.37
2022-12-04T16:58:54.425Z,22.20
2022-12-04T17:01:21.001Z,22.89
2022-12-04T17:03:47.645Z,23.13
2022-12-04T17:06:15.744Z,22.60
2022-12-04T17:08:42.244Z,22.59
2022-12-04T17:11:08.602Z,23.59
2022-12-04T17:13:35.111Z,21.77
2022-12-04T17:18:41.905Z,20.68
2022-12-04T17:21:15.688Z,19.65
2022-12-04T17:23:42.551Z,19.67
2022-12-04T17:26:09.467Z,20.29
2022-12-04T17:28:35.864Z,20.66
2022-12-04T17:34:04.109Z,20.47
2022-12-04T17:36:30.945Z,19.56
2022-12-04T17:39:03.487Z,19.79
2022-12-04T17:41:30.084Z,20.49
2022-12-04T17:43:56.573Z,22.64
2022-12-04T17:46:23.174Z,23.40
2022-12-04T17:48:49.811Z,24.25
2022-12-04T17:51:16.317Z,24.24
2022-12-04T17:53:42.777Z,23.05
2022-12-04T17:56:09.266Z,23.78
2022-12-04T17:58:35.831Z,23.23
2022-12-04T18:01:02.458Z,24.12
2022-12-04T18:03:29.161Z,25.84
2022-12-04T18:05:55.766Z,25.36
2022-12-04T18:08:22.286Z,25.51
2022-12-04T18:10:48.924Z,24.41
2022-12-04T18:13:15.422Z,24.60
2022-12-04T18:15:41.895Z,23.60
2022-12-04T18:18:08.526Z,22.95
2022-12-04T18:20:38.026Z,22.17
2022-12-04T18:23:04.501Z,24.02
2022-12-04T18:25:31.001Z,26.17
2022-12-04T18:27:57.561Z,27.84
2022-12-04T18:30:24.004Z,27.49
2022-12-04T18:32:50.705Z,27.33
2022-12-04T18:35:17.455Z,26.90
2022-12-04T18:37:43.882Z,27.08
2022-12-04T18:40:10.375Z,26.94
2022-12-04T18:42:36.864Z,27.58
2022-12-04T18:45:03.408Z,26.40
2022-12-04T18:47:29.908Z,27.44
2022-12-04T18:49:56.619Z,27.35
2022-12-04T18:52:30.794Z,28.04
2022-12-04T18:54:57.367Z,26.17
2022-12-04T18:57:23.874Z,26.23
2022-12-04T18:59:50.458Z,26.41
2022-12-04T19:02:16.989Z,27.03
2022-12-04T19:04:43.669Z,27.65
2022-12-04T19:07:10.593Z,28.14
2022-12-04T19:10:09.247Z,27.55
2022-12-04T19:12:23.710Z,27.18
2022-12-04T19:14:50.390Z,28.54
2022-12-04T19:17:16.927Z,27.78
2022-12-04T19:19:43.331Z,26.79
2022-12-04T19:22:09.720Z,26.64
2022-12-04T19:24:36.096Z,27.13
2022-12-04T19:27:02.560Z,26.63
2022-12-04T19:29:29.060Z,27.08
2022-12-04T19:31:59.228Z,26.74
2022-12-04T19:34:26.176Z,26.34
2022-12-04T19:36:52.596Z,26.35
2022-12-04T19:39:19.030Z,26.83
2022-12-04T19:41:45.340Z,26.98
2022-12-04T19:44:46.645Z,26.37
2022-12-04T19:47:00.564Z,26.51
2022-12-04T19:49:26.982Z,26.07
2022-12-04T19:51:53.396Z,26.33
2022-12-04T19:54:19.769Z,26.25
2022-12-04T19:56:46.135Z,27.34
2022-12-04T19:59:12.525Z,27.94
2022-12-04T20:01:39.076Z,25.86
2022-12-04T20:04:05.809Z,26.12
2022-12-04T20:06:33.282Z,27.56
2022-12-04T20:08:59.693Z,25.17
2022-12-04T20:11:26.083Z,26.47
2022-12-04T20:13:52.483Z,26.06
2022-12-04T20:16:19.437Z,25.73
2022-12-04T20:18:45.950Z,26.89
2022-12-04T20:21:12.402Z,26.16
2022-12-04T20:23:38.781Z,26.88
2022-12-04T20:26:05.103Z,26.15
2022-12-04T20:28:31.494Z,25.69
2022-12-04T20:30:58.243Z,25.76
2022-12-04T20:33:25.659Z,25.24
2022-12-04T20:35:52.458Z,24.90
2022-12-04T20:38:18.878Z,24.75
2022-12-04T20:40:45.512Z,25.13
2022-12-04T20:43:12.123Z,24.93
2022-12-04T20:45:38.783Z,25.52
2022-12-04T20:48:05.191Z,25.41
2022-12-04T20:50:31.675Z,26.43
2022-12-04T20:52:58.491Z,29.85
2022-12-04T20:55:24.974Z,24.59
2022-12-04T20:57:53.665Z,24.48
2022-12-04T21:00:22.227Z,24.44
2022-12-04T21:02:48.664Z,24.45
2022-12-04T21:05:15.070Z,25.54
2022-12-04T21:07:51.400Z,25.76
2022-12-04T21:10:25.268Z,25.58
2022-12-04T21:12:51.648Z,25.05
2022-12-04T21:15:18.133Z,24.23
2022-12-04T21:17:44.473Z,25.00
2022-12-04T21:20:11.045Z,24.61
2022-12-04T21:22:39.532Z,24.45
2022-12-04T21:25:05.912Z,24.53
2022-12-04T21:27:32.330Z,24.26
2022-12-04T21:29:58.881Z,24.50
2022-12-04T21:32:25.534Z,24.30
2022-12-04T21:34:51.979Z,24.27
2022-12-04T21:37:18.379Z,24.94
2022-12-04T21:39:44.871Z,24.06
2022-12-04T21:42:11.566Z,24.37
2022-12-04T21:44:38.822Z,24.42
2022-12-04T21:47:06.860Z,25.34
2022-12-04T21:49:33.216Z,24.69
2022-12-04T21:51:59.723Z,25.00
2022-12-04T21:54:26.160Z,25.06
2022-12-04T21:56:52.757Z,23.87
2022-12-04T21:59:19.459Z,22.87
2022-12-04T22:01:46.068Z,24.60
2022-12-04T22:04:12.650Z,24.96
2022-12-04T22:06:39.192Z,26.30
2022-12-04T22:09:06.749Z,25.52
2022-12-04T22:11:33.203Z,25.99
2022-12-04T22:13:59.564Z,26.18
2022-12-04T22:16:30.350Z,25.97
2022-12-04T22:19:05.044Z,25.04
2022-12-04T22:21:31.558Z,24.47
2022-12-04T22:23:57.986Z,21.86
2022-12-04T22:26:24.327Z,21.80
2022-12-04T22:28:50.730Z,20.93
2022-12-04T22:31:17.281Z,20.66
2022-12-04T22:33:43.726Z,20.70
2022-12-04T22:36:10.101Z,18.37
2022-12-04T22:38:47.225Z,14.94
2022-12-04T22:41:23.082Z,14.45
2022-12-04T22:43:49.445Z,13.11
2022-12-04T22:46:16.077Z,12.73
2022-12-04T22:48:45.199Z,10.11
2022-12-04T22:51:23.435Z,9.00
2022-12-04T22:53:49.802Z,9.05
2022-12-04T22:56:16.174Z,10.18
2022-12-04T22:58:42.553Z,11.09
2022-12-04T23:01:09.101Z,12.14
2022-12-04T23:03:35.581Z,10.72
2022-12-04T23:06:01.956Z,9.02
2022-12-04T23:08:28.546Z,6.59
2022-12-04T23:10:54.972Z,5.06
2022-12-04T23:13:21.358Z,5.51
2022-12-04T23:15:47.704Z,5.20
2022-12-04T23:18:14.210Z,4.48
2022-12-04T23:20:40.582Z,3.86
2022-12-04T23:23:06.955Z,5.19
2022-12-04T23:25:33.335Z,5.88
2022-12-04T23:27:59.812Z,10.42
2022-12-04T23:30:28.365Z,12.18
2022-12-04T23:32:56.925Z,12.65
2022-12-04T23:35:23.297Z,13.16
2022-12-04T23:37:49.666Z,13.01
2022-12-04T23:40:16.075Z,11.96
2022-12-04T23:42:46.886Z,10.90
2022-12-04T23:45:13.302Z,10.28
2022-12-04T23:47:39.776Z,10.15
2022-12-04T23:50:08.632Z,10.79
2022-12-04T23:52:34.978Z,11.16
2022-12-04T23:55:01.380Z,12.74
2022-12-04T23:57:27.806Z,13.77
2022-12-04T23:59:54.353Z,14.10
